Huvudsida
METAR-TAF:

METAR-TAF

Flygplatser :

Taranto, Italien

latitud: 40-31N, longitud: 017-24E, höjd: 64 m

Aktuellt väderrapport

Denna rapport gjordes för 11 timmar och 31 minuter sedan, klockan 18:50 UTC
Vind 6 kt från väst/sydväst
Temperatur 11°C
Fuktighet 94%
Tryck 999 hPa
Sikt: 9000 m
Spridda moln på en höjd av 2000 ft
Brutna moln på en höjd av 4500 ft
regn

METAR: LIBG 241850Z 24006KT 9000 RA SCT020 BKN045 11/10 Q0999

Tid: 07:21 (06:21 UTC)

Väderprognos

Denna rapport gjordes för 13 timmar och 21 minuter sedan, klockan 17:00 UTC
Prognos gäller från 24 kl. 18 UTC till 25 kl. 03 UTC
Vind 18 kt från syd/sydväst i byarna ända upp till 30 kt
Sikt 10 km eller mer
Spridda moln på en höjd av 4000 ft
Temporärt
från 24 kl. 18 UTC till 24 kl. 22 UTC
regn
Blir
från 24 kl. 22 UTC till 24 kl. 24 UTC
Vind 12 kt från väst/nordväst

TAF: LIBG 241700Z 2418/2503 21018G30KT 9999 SCT040 TEMPO 2418/2422 RA BECMG 2422/2424 30012KT

Aktuella väderrapporter och prognoser från 4000 flygplatser (METAR- och TAF-rapporter).

De tillgängliga stationerna syns som gula och röda prickar på kartan.

För musen över prickarna för att se namnen på stationerna.

Klicka sedan för att få väderrapporter och prognoser.

För att ändra kartan: Klicka på de gröna knapparna med ett svart kors på för att zooma in; den gröna knappen med ett streck på för att zooma ut; eller på de gröna pilarna för angränsande kartor.


METAR-TAF: